首页
METAR-TAF:

METAR-TAF

机场 :

Wawa, 安大略省, 加拿大

纬度: 47-58N, 经度: 084-47W, 海拔: 287米

当前天气观测

该预报发布于3小时和19分钟前的00:00 UTC
风速2节,风向多变
温度 -19°C
湿度 77%
气压 1023 hPa
能見度: 24.1公里
少量云层高于2000英尺

METAR: CYXZ 120000Z VRB02KT 15SM FEW020 M19/M22 A3021 RMK SC2 LAST OBS/NEXT 121100UTC SLP265

时间: 22:19 (03:19 UTC)

预报

该预报发布于7小时和37分钟前的19:42 UTC
预报有效从11日的 20点(UTC)到 11日的 24点(UTC)
风速8节,风向北转西北
能見度: 10公里
少量云层高于3000英尺
短暂存在
从 11日的 20点(UTC)到 11日的 24点(UTC)
能見度: 4.8公里
多云层高于3000英尺
小雪

TAF: CYXZ 111942Z 1120/1124 33008KT P6SM FEW030 TEMPO 1120/1124 3SM -SN BKN030 RMK NXT FCST WILL BE ISSUED AT 121245Z

超过4000个机场的气象观测和天气预报(METAR&TAF报告)。

可查询的气象台以黄色和红色小点在地图上表示。

将鼠标移到小点上方,可查看气象台名称。

然后点击查看天气观测和预报。

如需切换地图:点击带黑十字的绿色按钮放大地图;点击带横线的绿色按钮缩小地图;或者点击绿色箭头查看邻近地区的地图。


METAR-TAF: